Time;durP1;ratioP1;P1;durP2;ratioP2;P2;SDS_P1;SDS_P2;PMS_P1;PMS_P2;Temp;Humidity;BMP_temperature;BMP_pressure;BME280_temperature;BME280_humidity;BME280_pressure;Samples;Min_cycle;Max_cycle;Signal;HPM_P1;HPM_P2
2023/01/11 00:00:29;;;;;;;5.53;3.10;;;;;;;-12.05;49.48;101285.88;7342760;19;20011;-70
2023/01/11 00:02:59;;;;;;;4.50;1.98;;;;;;;-11.93;50.11;101279.59;7340893;19;20033;-69
2023/01/11 00:05:25;;;;;;;8.43;3.15;;;;;;;-11.71;49.90;101283.94;7347631;19;20014;-72
2023/01/11 00:07:50;;;;;;;11.20;3.60;;;;;;;-11.79;49.89;101268.22;7349709;19;20013;-69
2023/01/11 00:10:15;;;;;;;4.32;2.67;;;;;;;-11.53;49.18;101266.75;7348161;19;20030;-69
2023/01/11 00:12:41;;;;;;;6.55;2.22;;;;;;;-11.23;48.87;101266.28;7345901;19;20343;-68
2023/01/11 00:15:06;;;;;;;2.60;1.40;;;;;;;-11.59;49.11;101276.78;7346351;19;20345;-71
2023/01/11 00:17:30;;;;;;;0.98;0.52;;;;;;;-11.67;48.99;101275.56;7347825;19;20027;-72
2023/01/11 00:19:55;;;;;;;4.07;2.47;;;;;;;-11.73;48.44;101265.00;7346343;19;20021;-70
2023/01/11 00:22:20;;;;;;;2.30;1.08;;;;;;;-11.60;49.44;101269.88;7345265;19;20017;-69
2023/01/11 00:24:44;;;;;;;5.63;3.38;;;;;;;-12.01;48.78;101285.22;7347422;19;20433;-71
2023/01/11 00:27:09;;;;;;;8.40;3.55;;;;;;;-11.80;48.62;101281.00;7343976;19;20023;-69
2023/01/11 00:29:34;;;;;;;7.32;3.70;;;;;;;-11.80;49.02;101266.47;7340777;19;20469;-70
2023/01/11 00:31:58;;;;;;;1.23;1.13;;;;;;;-11.76;49.64;101270.94;7340613;19;20019;-72
2023/01/11 00:34:23;;;;;;;4.68;2.83;;;;;;;-11.80;48.85;101283.59;7340774;19;20082;-73
2023/01/11 00:36:48;;;;;;;2.97;1.67;;;;;;;-11.55;48.89;101288.09;7346087;19;20035;-74
2023/01/11 00:39:12;;;;;;;3.47;1.92;;;;;;;-11.84;48.56;101280.00;7342185;19;20021;-70
2023/01/11 00:49:47;;;;;;;6.88;3.70;;;;;;;-11.91;48.28;101277.09;7346287;19;20672;-69
2023/01/11 00:52:11;;;;;;;8.63;4.07;;;;;;;-11.96;48.56;101268.31;7343323;19;20341;-69
2023/01/11 00:54:37;;;;;;;7.63;2.97;;;;;;;-11.84;48.68;101269.72;7345491;19;20017;-68
2023/01/11 00:57:02;;;;;;;10.30;4.50;;;;;;;-11.96;48.38;101274.31;7345366;19;20325;-66
2023/01/11 00:59:27;;;;;;;2.95;1.45;;;;;;;-11.74;49.21;101270.97;7346361;19;20010;-71
2023/01/11 01:01:52;;;;;;;3.72;2.70;;;;;;;-11.79;48.61;101283.66;7347758;19;20006;-68
2023/01/11 01:04:16;;;;;;;9.75;1.88;;;;;;;-11.37;48.33;101274.28;7343195;19;20014;-70
2023/01/11 01:06:41;;;;;;;3.88;3.45;;;;;;;-11.50;47.75;101287.44;7341753;19;20024;-72
2023/01/11 01:09:05;;;;;;;2.85;1.80;;;;;;;-11.56;48.23;101276.91;7340197;19;20357;-69
2023/01/11 01:11:30;;;;;;;1.33;0.85;;;;;;;-11.74;48.87;101282.13;7335499;19;20037;-72
2023/01/11 01:16:38;;;;;;;5.72;3.10;;;;;;;-11.84;48.79;101269.72;7343898;19;20037;-70
2023/01/11 01:19:03;;;;;;;3.90;2.08;;;;;;;-11.75;48.80;101264.09;7341121;19;20440;-69
2023/01/11 01:21:27;;;;;;;9.70;3.95;;;;;;;-11.92;48.54;101260.78;7343790;19;20121;-69
2023/01/11 01:23:53;;;;;;;3.88;2.15;;;;;;;-11.52;49.02;101278.81;7341087;19;20651;-69
2023/01/11 01:26:18;;;;;;;4.63;2.50;;;;;;;-11.63;48.57;101261.16;7342609;19;20014;-72
2023/01/11 01:28:43;;;;;;;4.15;1.98;;;;;;;-11.60;48.58;101282.72;7343651;19;20038;-73
2023/01/11 01:31:07;;;;;;;5.78;3.72;;;;;;;-11.83;48.54;101256.03;7344435;19;20508;-65
2023/01/11 01:33:32;;;;;;;5.07;3.30;;;;;;;-11.82;48.38;101268.09;7344862;19;20018;-70
2023/01/11 01:35:56;;;;;;;4.88;3.00;;;;;;;-11.73;48.25;101257.28;7345449;19;20010;-67
2023/01/11 01:38:21;;;;;;;1.77;0.98;;;;;;;-11.51;48.78;101262.53;7343696;19;20011;-73
2023/01/11 01:40:47;;;;;;;10.15;4.38;;;;;;;-11.88;48.12;101254.09;7345108;19;20070;-75
2023/01/11 01:43:14;;;;;;;7.40;3.58;;;;;;;-11.87;48.74;101269.59;7345594;19;20021;-72
2023/01/11 01:45:42;;;;;;;4.70;2.78;;;;;;;-11.85;48.51;101267.94;7342661;19;20011;-73
2023/01/11 01:48:11;;;;;;;1.08;0.98;;;;;;;-11.65;49.00;101257.63;7345315;19;20047;-68
2023/01/11 01:50:44;;;;;;;5.47;2.65;;;;;;;-11.68;48.57;101252.34;7343551;19;20477;-70
2023/01/11 01:53:44;;;;;;;4.50;2.77;;;;;;;-11.68;48.44;101245.50;7342878;19;20015;-69
2023/01/11 01:56:14;;;;;;;5.45;3.30;;;;;;;-11.69;48.27;101251.47;7343777;19;20348;-67
2023/01/11 01:58:49;;;;;;;3.00;2.08;;;;;;;-11.43;48.44;101247.44;7342158;19;20456;-68
2023/01/11 02:04:02;;;;;;;5.32;3.25;;;;;;;-11.90;48.32;101259.16;7343142;19;20026;-65
2023/01/11 02:06:27;;;;;;;7.20;2.60;;;;;;;-11.81;48.58;101258.69;7342161;19;20034;-66
2023/01/11 02:09:02;;;;;;;2.05;1.27;;;;;;;-11.68;48.90;101260.06;7343459;19;20015;-68
2023/01/11 02:11:29;;;;;;;5.28;2.45;;;;;;;-11.67;48.72;101255.00;7342911;19;20006;-67
2023/01/11 02:14:07;;;;;;;7.78;3.40;;;;;;;-11.72;47.61;101256.47;7349941;19;20096;-72
2023/01/11 02:16:32;;;;;;;4.60;1.92;;;;;;;-11.56;48.22;101248.59;7349454;19;20472;-70
2023/01/11 02:18:58;;;;;;;4.97;2.95;;;;;;;-11.73;48.01;101245.31;7350416;19;20424;-69
2023/01/11 02:21:57;;;;;;;4.40;2.17;;;;;;;-11.85;48.72;101252.50;7348850;19;20003;-64
2023/01/11 02:24:56;;;;;;;2.83;1.98;;;;;;;-11.79;48.91;101227.09;7346119;19;20017;-64
2023/01/11 02:27:58;;;;;;;2.90;1.60;;;;;;;-11.86;48.43;101232.78;7347561;19;20042;-62
2023/01/11 02:30:34;;;;;;;6.40;3.92;;;;;;;-11.85;48.29;101231.09;7350294;19;20018;-73
2023/01/11 02:33:17;;;;;;;5.03;2.63;;;;;;;-11.82;48.54;101241.50;7348403;19;20023;-67
2023/01/11 02:35:57;;;;;;;5.18;2.53;;;;;;;-11.88;48.71;101233.53;7349485;19;20019;-66
2023/01/11 02:38:32;;;;;;;6.43;2.63;;;;;;;-11.74;48.73;101227.25;7350124;19;20022;-65
2023/01/11 02:47:17;;;;;;;3.97;2.63;;;;;;;-11.75;48.57;101234.09;7346959;19;20082;-64
2023/01/11 02:49:53;;;;;;;7.90;3.58;;;;;;;-11.65;48.28;101219.94;7346595;19;20011;-65
2023/01/11 02:52:26;;;;;;;4.57;2.97;;;;;;;-11.73;48.64;101226.41;7345807;19;20054;-64
2023/01/11 02:54:56;;;;;;;5.18;3.42;;;;;;;-11.75;48.29;101236.66;7346784;19;20400;-68
2023/01/11 02:57:23;;;;;;;3.40;1.60;;;;;;;-11.81;48.84;101227.81;7346849;19;20027;-67
2023/01/11 02:59:49;;;;;;;6.38;3.28;;;;;;;-11.55;48.83;101228.91;7346993;19;20015;-68
2023/01/11 03:02:15;;;;;;;8.68;3.30;;;;;;;-11.85;48.68;101226.81;7346101;19;20013;-67
2023/01/11 03:04:40;;;;;;;2.88;1.95;;;;;;;-11.80;49.01;101219.28;7345698;19;20025;-65
2023/01/11 03:07:42;;;;;;;4.22;2.72;;;;;;;-11.77;48.80;101214.28;7346262;19;20090;-64
2023/01/11 03:10:44;;;;;;;4.35;2.60;;;;;;;-11.83;48.90;101217.47;7345537;19;20039;-70
2023/01/11 03:13:47;;;;;;;2.90;2.00;;;;;;;-11.62;48.28;101214.88;7342799;19;20013;-69
2023/01/11 03:16:37;;;;;;;4.97;2.38;;;;;;;-11.63;48.65;101222.56;7349390;19;20018;-70
2023/01/11 03:19:23;;;;;;;4.43;2.15;;;;;;;-11.42;48.47;101208.91;7347554;19;20015;-68
2023/01/11 03:22:06;;;;;;;7.60;4.90;;;;;;;-11.76;48.12;101195.47;7346684;19;20476;-69
2023/01/11 03:24:41;;;;;;;5.50;3.55;;;;;;;-11.73;48.70;101195.56;7348469;19;20021;-73
2023/01/11 03:27:16;;;;;;;4.10;1.98;;;;;;;-11.44;48.50;101194.22;7358658;19;20071;-74
2023/01/11 03:29:53;;;;;;;4.05;2.25;;;;;;;-11.30;48.59;101187.06;7362118;19;20014;-75
2023/01/11 03:32:21;;;;;;;2.97;2.03;;;;;;;-11.44;47.78;101196.78;7352401;19;20034;-75
2023/01/11 03:35:18;;;;;;;6.50;3.70;;;;;;;-11.63;47.92;101208.00;7356249;19;20085;-73
2023/01/11 03:37:58;;;;;;;6.68;4.03;;;;;;;-11.62;48.18;101184.03;7358078;19;20042;-74
2023/01/11 03:40:45;;;;;;;5.13;2.67;;;;;;;-11.72;48.41;101202.47;7352092;19;20067;-71
2023/01/11 03:43:12;;;;;;;4.38;2.88;;;;;;;-11.55;47.93;101201.50;7351305;19;20018;-73
2023/01/11 03:45:53;;;;;;;5.10;2.63;;;;;;;-11.75;47.71;101208.38;7346459;19;20481;-73
2023/01/11 03:48:30;;;;;;;6.88;3.53;;;;;;;-11.74;47.77;101217.81;7346594;19;20013;-70
2023/01/11 03:50:56;;;;;;;4.03;2.78;;;;;;;-11.74;48.09;101209.25;7347377;19;20028;-71
2023/01/11 03:53:24;;;;;;;2.90;0.98;;;;;;;-11.51;47.70;101199.94;7344377;19;20007;-73
2023/01/11 03:55:54;;;;;;;4.22;3.22;;;;;;;-11.80;48.02;101207.31;7345086;19;20038;-68
2023/01/11 03:58:19;;;;;;;11.02;3.60;;;;;;;-11.58;48.12;101197.91;7342632;19;20038;-71
2023/01/11 04:00:44;;;;;;;5.53;2.53;;;;;;;-11.89;48.19;101193.19;7345095;19;20011;-72
2023/01/11 04:03:11;;;;;;;2.33;1.55;;;;;;;-11.82;48.83;101196.09;7344191;19;20028;-73
2023/01/11 04:05:38;;;;;;;8.38;3.83;;;;;;;-11.53;48.08;101179.28;7344455;19;20024;-72
2023/01/11 04:08:03;;;;;;;2.90;1.63;;;;;;;-11.53;48.61;101180.97;7344372;19;20021;-72
2023/01/11 04:10:28;;;;;;;5.80;2.78;;;;;;;-11.47;48.61;101188.94;7344012;19;20007;-71
2023/01/11 04:12:52;;;;;;;9.68;3.25;;;;;;;-11.60;48.40;101166.09;7343004;19;20090;-69
2023/01/11 04:15:17;;;;;;;6.60;3.15;;;;;;;-11.67;48.29;101180.41;7348174;19;20007;-68
2023/01/11 04:17:42;;;;;;;3.97;2.53;;;;;;;-11.59;48.32;101166.16;7346305;19;20026;-74
2023/01/11 04:20:11;;;;;;;7.47;4.65;;;;;;;-11.87;47.71;101183.84;7348211;19;20015;-72
2023/01/11 04:22:35;;;;;;;6.10;4.10;;;;;;;-11.94;47.97;101181.81;7347468;19;20018;-69
2023/01/11 04:25:03;;;;;;;8.07;4.25;;;;;;;-12.06;48.64;101195.03;7345574;19;20026;-70
2023/01/11 04:27:28;;;;;;;4.93;2.95;;;;;;;-11.69;48.04;101184.59;7346105;19;20006;-70
2023/01/11 04:29:52;;;;;;;3.75;2.47;;;;;;;-11.65;48.20;101178.78;7346328;19;20017;-71
2023/01/11 04:32:17;;;;;;;5.18;2.90;;;;;;;-11.74;48.57;101186.97;7344887;19;20112;-70
2023/01/11 04:34:42;;;;;;;6.50;3.97;;;;;;;-11.82;48.31;101184.91;7344242;19;20717;-69
2023/01/11 04:37:07;;;;;;;8.95;4.25;;;;;;;-11.77;48.23;101171.44;7347380;19;20390;-69
2023/01/11 04:39:31;;;;;;;2.05;1.20;;;;;;;-11.78;48.57;101179.09;7343218;19;20039;-73
2023/01/11 04:44:39;;;;;;;1.92;0.85;;;;;;;-11.53;48.61;101173.25;7346472;19;20094;-72
2023/01/11 04:47:04;;;;;;;3.45;2.25;;;;;;;-11.67;48.11;101166.66;7346692;19;20027;-71
2023/01/11 04:49:28;;;;;;;8.13;4.40;;;;;;;-11.87;48.33;101174.44;7347940;19;20010;-74
2023/01/11 04:51:53;;;;;;;7.57;4.10;;;;;;;-11.84;48.60;101181.38;7344883;19;20010;-72
2023/01/11 04:54:18;;;;;;;8.75;3.88;;;;;;;-11.76;48.54;101172.34;7346185;19;20015;-72
2023/01/11 04:56:42;;;;;;;5.75;2.53;;;;;;;-11.86;48.89;101177.91;7344659;19;20023;-74
2023/01/11 04:59:07;;;;;;;5.32;2.22;;;;;;;-11.76;49.09;101185.19;7346754;19;20014;-74
2023/01/11 05:01:31;;;;;;;5.35;3.05;;;;;;;-11.68;48.51;101168.34;7347357;19;20425;-73
2023/01/11 05:03:56;;;;;;;6.57;3.55;;;;;;;-11.81;48.85;101178.97;7346926;19;20026;-74
2023/01/11 05:06:21;;;;;;;5.00;2.30;;;;;;;-11.73;49.24;101167.25;7351721;19;20018;-74
2023/01/11 05:08:47;;;;;;;5.55;3.30;;;;;;;-11.95;49.73;101165.50;7349698;19;20014;-72
2023/01/11 05:11:11;;;;;;;1.70;1.15;;;;;;;-11.88;49.91;101153.81;7351359;19;20062;-73
2023/01/11 05:13:42;;;;;;;8.60;5.18;;;;;;;-11.79;49.56;101161.91;7345343;19;20027;-74
2023/01/11 05:16:24;;;;;;;9.68;4.30;;;;;;;-11.93;50.01;101155.28;7346945;19;20014;-73
2023/01/11 05:18:54;;;;;;;6.07;3.75;;;;;;;-12.13;50.93;101160.47;7343484;19;20363;-72
2023/01/11 05:21:24;;;;;;;8.48;4.40;;;;;;;-12.24;51.24;101151.41;7345113;19;20021;-73
2023/01/11 05:23:49;;;;;;;4.65;2.85;;;;;;;-12.20;51.53;101158.47;7342691;19;20018;-72
2023/01/11 05:26:22;;;;;;;4.93;3.33;;;;;;;-12.11;51.41;101152.84;7345126;19;20015;-67
2023/01/11 05:28:48;;;;;;;8.63;3.40;;;;;;;-11.97;51.12;101153.44;7344011;19;20018;-67
2023/01/11 05:31:13;;;;;;;2.53;1.80;;;;;;;-11.85;50.84;101148.81;7342746;19;20017;-67
2023/01/11 05:33:37;;;;;;;4.10;1.67;;;;;;;-11.79;50.89;101152.50;7341631;19;20801;-66
2023/01/11 05:36:05;;;;;;;5.13;2.65;;;;;;;-11.99;51.11;101155.06;7344153;19;20575;-69
2023/01/11 05:38:30;;;;;;;3.88;2.78;;;;;;;-11.79;51.11;101156.75;7344075;19;20022;-72
2023/01/11 05:40:56;;;;;;;5.72;3.45;;;;;;;-11.83;51.25;101175.44;7342300;19;20011;-70
2023/01/11 05:43:21;;;;;;;6.82;2.65;;;;;;;-11.89;51.31;101177.75;7343494;19;20059;-70
2023/01/11 05:45:46;;;;;;;6.00;3.60;;;;;;;-11.80;51.12;101163.59;7343336;19;20014;-70
2023/01/11 05:48:10;;;;;;;9.15;2.97;;;;;;;-11.64;50.87;101165.09;7342223;19;20035;-70
2023/01/11 05:50:35;;;;;;;4.78;2.33;;;;;;;-12.01;51.98;101161.81;7342956;19;20006;-70
2023/01/11 05:52:59;;;;;;;8.85;3.35;;;;;;;-11.76;51.83;101162.03;7342797;19;20007;-69
2023/01/11 05:55:24;;;;;;;5.38;3.30;;;;;;;-11.69;51.53;101156.28;7345538;19;20129;-71
2023/01/11 05:57:49;;;;;;;3.08;1.38;;;;;;;-11.71;51.92;101163.06;7341906;19;20090;-70
2023/01/11 06:00:15;;;;;;;7.82;3.55;;;;;;;-11.85;52.38;101151.38;7343341;19;20011;-69
2023/01/11 06:02:39;;;;;;;5.55;3.20;;;;;;;-12.00;52.60;101145.56;7343819;19;20080;-69
2023/01/11 06:05:05;;;;;;;6.63;4.60;;;;;;;-11.82;52.25;101139.50;7345107;19;20368;-68
2023/01/11 06:07:29;;;;;;;4.07;2.35;;;;;;;-11.84;52.45;101145.38;7343641;19;20084;-69
2023/01/11 06:09:54;;;;;;;6.75;3.78;;;;;;;-11.85;52.76;101159.09;7343408;19;20014;-72
2023/01/11 06:12:19;;;;;;;20.83;5.75;;;;;;;-11.93;53.08;101156.19;7341656;19;20565;-70
2023/01/11 06:14:43;;;;;;;6.07;2.25;;;;;;;-11.70;53.25;101157.09;7342984;19;20065;-69
2023/01/11 06:17:08;;;;;;;9.05;3.50;;;;;;;-11.77;53.38;101156.03;7340829;19;20461;-69
2023/01/11 06:19:32;;;;;;;7.78;3.50;;;;;;;-11.66;53.20;101150.41;7338046;19;20021;-68
2023/01/11 06:21:57;;;;;;;7.63;4.50;;;;;;;-11.76;53.41;101144.91;7339916;19;20015;-70
2023/01/11 06:24:22;;;;;;;8.02;4.35;;;;;;;-11.71;53.57;101139.91;7341260;19;20121;-68
2023/01/11 06:26:46;;;;;;;8.40;4.13;;;;;;;-11.61;53.43;101148.88;7338209;19;20018;-69
2023/01/11 06:29:11;;;;;;;4.10;2.15;;;;;;;-11.73;53.72;101146.69;7339916;19;20389;-69
2023/01/11 06:31:35;;;;;;;3.97;2.75;;;;;;;-11.42;53.01;101151.41;7340687;19;20006;-69
2023/01/11 06:34:00;;;;;;;9.07;3.90;;;;;;;-11.28;52.63;101137.38;7337681;19;20322;-69
2023/01/11 06:36:25;;;;;;;2.45;1.42;;;;;;;-11.19;52.68;101140.34;7339669;19;20014;-69
2023/01/11 06:38:51;;;;;;;1.40;1.15;;;;;;;-11.18;52.76;101130.94;7338353;19;20039;-69
2023/01/11 06:41:15;;;;;;;7.43;4.50;;;;;;;-11.45;52.93;101126.44;7340232;19;20017;-67
2023/01/11 06:43:40;;;;;;;4.25;2.97;;;;;;;-11.18;52.84;101121.50;7342745;19;20018;-67
2023/01/11 06:46:08;;;;;;;3.92;3.05;;;;;;;-10.91;52.95;101136.25;7341799;19;20021;-73
2023/01/11 06:48:34;;;;;;;3.90;2.58;;;;;;;-11.01;52.57;101130.75;7342332;19;20023;-73
2023/01/11 06:50:59;;;;;;;7.70;4.57;;;;;;;-10.91;52.32;101128.53;7342351;19;20022;-73
2023/01/11 06:53:25;;;;;;;4.20;2.45;;;;;;;-11.01;52.52;101124.72;7341131;19;20011;-73
2023/01/11 06:55:54;;;;;;;7.22;3.88;;;;;;;-11.16;53.08;101119.84;7342040;19;20062;-74
2023/01/11 06:58:21;;;;;;;2.95;2.47;;;;;;;-10.77;52.68;101130.81;7344215;19;20132;-73
2023/01/11 07:00:45;;;;;;;6.13;3.63;;;;;;;-11.08;52.97;101127.88;7351474;19;20456;-71
2023/01/11 07:03:12;;;;;;;3.72;2.65;;;;;;;-11.08;53.17;101133.03;7347521;19;20476;-69
2023/01/11 07:05:36;;;;;;;7.15;4.00;;;;;;;-11.17;53.51;101132.69;7349057;19;20034;-71
2023/01/11 07:08:02;;;;;;;7.80;4.75;;;;;;;-11.08;53.30;101133.03;7348490;19;20003;-70
2023/01/11 07:10:27;;;;;;;5.60;3.47;;;;;;;-10.89;53.01;101130.34;7348859;19;20460;-69
2023/01/11 07:12:52;;;;;;;4.47;1.75;;;;;;;-10.67;52.98;101132.03;7344947;19;20040;-71
2023/01/11 07:15:17;;;;;;;5.10;3.67;;;;;;;-10.73;52.60;101127.53;7348255;19;20018;-70
2023/01/11 07:17:41;;;;;;;4.80;3.25;;;;;;;-10.75;53.02;101144.63;7349898;19;20018;-71
2023/01/11 07:20:07;;;;;;;4.85;3.03;;;;;;;-10.79;52.96;101129.00;7348976;19;20404;-70
2023/01/11 07:22:35;;;;;;;7.50;4.10;;;;;;;-10.83;53.39;101122.84;7350583;19;20037;-70
2023/01/11 07:25:00;;;;;;;8.07;4.20;;;;;;;-10.79;53.06;101147.91;7349325;19;20010;-71
2023/01/11 07:27:24;;;;;;;7.93;4.15;;;;;;;-10.66;52.62;101138.94;7347692;19;20017;-70
2023/01/11 07:29:51;;;;;;;6.22;3.25;;;;;;;-10.42;51.94;101151.84;7350329;19;20022;-66
2023/01/11 07:32:16;;;;;;;5.35;3.72;;;;;;;-10.44;52.09;101156.06;7348617;19;20485;-65
2023/01/11 07:34:40;;;;;;;1.30;0.68;;;;;;;-10.55;52.63;101139.34;7345596;19;20453;-66
2023/01/11 07:37:07;;;;;;;6.78;3.97;;;;;;;-10.66;52.82;101139.81;7347532;19;20464;-64
2023/01/11 07:39:32;;;;;;;8.45;5.05;;;;;;;-10.87;53.59;101144.16;7346691;19;20011;-67
2023/01/11 07:44:40;;;;;;;11.68;5.75;;;;;;;-10.81;53.59;101148.66;7348390;19;20014;-67
2023/01/11 07:47:05;;;;;;;3.30;2.42;;;;;;;-10.81;54.03;101131.50;7347945;19;20014;-68
2023/01/11 07:49:30;;;;;;;4.00;2.53;;;;;;;-10.42;53.46;101147.56;7347381;19;20002;-67
2023/01/11 07:51:55;;;;;;;9.45;5.45;;;;;;;-10.46;52.75;101137.97;7348266;19;21705;-67
2023/01/11 07:54:19;;;;;;;5.32;2.40;;;;;;;-10.18;52.62;101141.53;7347768;19;20467;-66
2023/01/11 07:56:44;;;;;;;8.60;3.85;;;;;;;-10.39;52.70;101134.81;7350682;19;20084;-68
2023/01/11 07:59:09;;;;;;;5.43;2.95;;;;;;;-10.61;53.64;101123.66;7348786;19;20013;-67
2023/01/11 08:01:34;;;;;;;4.95;2.53;;;;;;;-10.43;53.55;101129.47;7348446;19;20475;-66
2023/01/11 08:03:58;;;;;;;10.93;5.75;;;;;;;-10.77;53.60;101122.19;7351072;19;20352;-67
2023/01/11 08:06:23;;;;;;;7.70;4.28;;;;;;;-10.68;53.93;101130.25;7348647;19;20018;-67
2023/01/11 08:08:47;;;;;;;5.57;3.63;;;;;;;-10.04;53.07;101122.22;7348708;19;20342;-70
2023/01/11 08:16:38;;;;;;;7.00;3.38;;;;;;;-10.25;53.13;101127.53;7348075;19;20014;-66
2023/01/11 08:19:03;;;;;;;5.63;2.85;;;;;;;-10.19;52.89;101114.00;7350816;19;20050;-67
2023/01/11 08:21:28;;;;;;;13.70;3.45;;;;;;;-10.25;53.35;101109.50;7349524;19;20006;-67
2023/01/11 08:23:55;;;;;;;4.38;2.90;;;;;;;-10.29;53.71;101110.22;7350122;19;20025;-65
2023/01/11 08:26:22;;;;;;;5.88;3.83;;;;;;;-10.49;53.98;101100.88;7351477;19;20011;-70
2023/01/11 08:28:46;;;;;;;5.70;3.05;;;;;;;-10.51;54.48;101081.94;7347915;19;20362;-67
2023/01/11 08:31:11;;;;;;;3.05;1.88;;;;;;;-10.12;53.84;101098.75;7348543;19;20033;-67
2023/01/11 08:33:36;;;;;;;8.77;4.72;;;;;;;-10.27;53.53;101087.09;7344934;19;20037;-67
2023/01/11 08:36:05;;;;;;;4.75;2.92;;;;;;;-10.03;53.79;101093.03;7350219;19;20003;-66
2023/01/11 08:38:29;;;;;;;3.95;2.22;;;;;;;-10.03;53.13;101099.06;7350186;19;20070;-67
2023/01/11 08:40:54;;;;;;;7.13;3.80;;;;;;;-10.26;53.73;101089.69;7347706;19;20015;-66
2023/01/11 08:43:18;;;;;;;9.50;5.05;;;;;;;-10.18;53.69;101080.53;7349983;19;20341;-66
2023/01/11 08:45:43;;;;;;;5.35;2.88;;;;;;;-10.13;53.38;101075.50;7349587;19;20021;-67
2023/01/11 08:48:08;;;;;;;7.32;2.63;;;;;;;-10.21;53.40;101072.69;7347143;19;20010;-67
2023/01/11 08:50:33;;;;;;;16.27;3.70;;;;;;;-10.04;53.32;101075.78;7349256;19;20499;-67
2023/01/11 08:52:57;;;;;;;9.38;3.72;;;;;;;-10.05;53.05;101076.66;7350670;19;20407;-66
2023/01/11 08:55:22;;;;;;;8.93;3.88;;;;;;;-9.80;52.49;101076.63;7346998;19;20469;-67
2023/01/11 08:57:46;;;;;;;3.65;2.88;;;;;;;-9.64;52.16;101070.28;7343898;19;20022;-66
2023/01/11 09:00:11;;;;;;;4.55;2.67;;;;;;;-9.68;52.72;101076.16;7344778;19;20367;-66
2023/01/11 09:02:36;;;;;;;7.72;3.88;;;;;;;-9.60;52.10;101072.13;7342424;19;20394;-66
2023/01/11 09:05:01;;;;;;;4.28;3.17;;;;;;;-9.59;52.60;101086.75;7343762;19;20643;-67
2023/01/11 09:07:28;;;;;;;6.80;4.45;;;;;;;-9.95;51.81;101076.13;7346824;19;20014;-66
2023/01/11 09:09:52;;;;;;;8.35;3.80;;;;;;;-9.84;51.97;101068.75;7342775;19;20005;-66
2023/01/11 09:12:17;;;;;;;3.60;2.60;;;;;;;-9.73;51.79;101069.97;7345169;19;20479;-67
2023/01/11 09:14:42;;;;;;;3.03;2.47;;;;;;;-9.65;51.91;101082.28;7344529;19;20010;-65
2023/01/11 09:17:07;;;;;;;5.95;3.20;;;;;;;-9.61;51.19;101086.75;7343800;19;20512;-65
2023/01/11 09:19:34;;;;;;;4.60;2.45;;;;;;;-9.66;51.80;101075.38;7341204;19;20075;-65
2023/01/11 09:22:01;;;;;;;6.53;2.67;;;;;;;-9.55;51.33;101062.81;7343478;19;20412;-67
2023/01/11 09:24:27;;;;;;;9.57;3.80;;;;;;;-9.62;52.87;101053.13;7344630;19;20011;-67
2023/01/11 09:26:51;;;;;;;6.30;3.13;;;;;;;-9.75;52.35;101056.16;7342802;19;20035;-67
2023/01/11 09:29:17;;;;;;;7.47;3.78;;;;;;;-9.94;53.72;101054.69;7344198;19;20002;-67
2023/01/11 09:31:42;;;;;;;5.97;2.42;;;;;;;-9.88;54.04;101041.09;7343250;19;20021;-65
2023/01/11 09:34:09;;;;;;;6.97;2.85;;;;;;;-9.83;55.15;101047.28;7341231;19;20018;-67
2023/01/11 09:36:35;;;;;;;2.38;2.13;;;;;;;-9.69;54.87;101049.47;7344494;19;20463;-67
2023/01/11 09:39:04;;;;;;;5.88;2.95;;;;;;;-9.91;55.44;101029.84;7343136;19;20026;-68
2023/01/11 09:42:06;;;;;;;6.18;2.78;;;;;;;-9.86;55.95;101029.13;7344134;19;20011;-67
2023/01/11 09:44:34;;;;;;;5.88;3.63;;;;;;;-10.19;55.68;101024.66;7342710;19;20014;-67
2023/01/11 09:47:13;;;;;;;6.10;2.30;;;;;;;-10.07;55.66;101017.28;7345760;19;20018;-66
2023/01/11 09:49:42;;;;;;;3.17;2.05;;;;;;;-9.90;54.64;101018.69;7343688;19;20019;-66
2023/01/11 09:52:28;;;;;;;2.08;1.35;;;;;;;-9.77;54.52;101007.06;7344592;19;20006;-67
2023/01/11 09:54:56;;;;;;;0.88;0.85;;;;;;;-9.70;53.82;101000.38;7342264;19;20022;-66
2023/01/11 09:57:27;;;;;;;2.38;1.50;;;;;;;-9.57;53.49;101015.44;7343708;19;20029;-66
2023/01/11 10:00:18;;;;;;;15.60;4.38;;;;;;;-9.97;53.41;100990.97;7343079;19;20314;-67
2023/01/11 10:03:23;;;;;;;3.65;2.08;;;;;;;-9.93;53.44;100997.94;7342792;19;20037;-67
2023/01/11 10:06:36;;;;;;;6.55;4.03;;;;;;;-9.71;53.25;100994.38;7345149;19;20081;-67
2023/01/11 10:09:04;;;;;;;5.70;3.17;;;;;;;-9.64;53.07;100980.81;7345659;19;20011;-67
2023/01/11 10:11:48;;;;;;;4.38;3.55;;;;;;;-9.36;53.29;100995.44;7345901;19;20031;-67
2023/01/11 10:14:33;;;;;;;9.27;3.47;;;;;;;-9.41;52.65;100989.28;7347741;19;20019;-66
2023/01/11 10:17:15;;;;;;;5.07;2.50;;;;;;;-9.22;52.48;100991.56;7342229;19;20027;-66
2023/01/11 10:19:47;;;;;;;5.45;2.78;;;;;;;-9.55;52.72;100977.66;7338678;19;20018;-67
2023/01/11 10:22:39;;;;;;;5.57;2.53;;;;;;;-9.65;53.40;100984.22;7339992;19;20029;-69
2023/01/11 10:25:09;;;;;;;5.35;2.97;;;;;;;-9.57;53.48;100982.75;7342872;19;20021;-69
2023/01/11 10:27:39;;;;;;;2.33;1.92;;;;;;;-9.31;53.16;100975.78;7341199;19;20019;-70
2023/01/11 10:33:20;;;;;;;6.68;3.17;;;;;;;-9.55;53.32;100964.75;7339638;19;20025;-69
2023/01/11 10:39:02;;;;;;;4.38;2.92;;;;;;;-8.86;52.41;100971.06;7345928;19;20023;-69
2023/01/11 10:42:09;;;;;;;;;;;;;;;-9.38;52.87;100963.56;7347995;19;20014;-68
2023/01/11 10:44:59;;;;;;;3.63;2.38;;;;;;;-9.51;53.87;100974.34;7346611;19;19921;-68
2023/01/11 10:47:30;;;;;;;5.15;2.75;;;;;;;-9.26;53.26;100963.91;7351298;19;20354;-68
2023/01/11 10:50:03;;;;;;;6.25;2.70;;;;;;;-8.98;52.89;100954.34;7354215;19;20014;-67
2023/01/11 10:52:40;;;;;;;2.40;2.13;;;;;;;-9.06;53.02;100937.75;7347001;19;20010;-66
2023/01/11 10:55:32;;;;;;;5.80;4.07;;;;;;;-9.28;52.98;100934.59;7350263;19;20010;-66
2023/01/11 10:58:11;;;;;;;5.60;3.40;;;;;;;-9.24;53.67;100938.97;7346855;19;20015;-67
2023/01/11 11:00:57;;;;;;;3.80;2.75;;;;;;;-9.28;54.01;100934.59;7349734;19;20018;-71
2023/01/11 11:03:59;;;;;;;5.15;2.70;;;;;;;-9.39;54.42;100935.97;7348255;19;20504;-67
2023/01/11 11:06:49;;;;;;;4.30;1.83;;;;;;;-9.22;54.45;100939.03;7348272;19;20022;-65
2023/01/11 11:09:34;;;;;;;4.80;1.58;;;;;;;-9.17;54.54;100935.75;7348513;19;20014;-66
2023/01/11 11:12:17;;;;;;;5.82;3.22;;;;;;;-9.11;54.66;100936.75;7348359;19;20021;-66
2023/01/11 11:14:41;;;;;;;4.70;2.95;;;;;;;-9.12;54.60;100945.31;7348528;19;20014;-66
2023/01/11 11:17:17;;;;;;;11.07;4.15;;;;;;;-9.43;54.86;100934.13;7349368;19;20044;-67
2023/01/11 11:19:42;;;;;;;8.93;4.00;;;;;;;-9.20;53.93;100939.97;7349521;19;20461;-66
2023/01/11 11:22:10;;;;;;;9.30;5.13;;;;;;;-9.37;53.84;100912.78;7347878;19;20484;-66
2023/01/11 11:24:42;;;;;;;2.10;1.77;;;;;;;-9.17;54.04;100909.94;7348960;19;20358;-67
2023/01/11 11:27:38;;;;;;;6.55;3.25;;;;;;;-9.27;54.66;100910.50;7346090;19;20022;-66
2023/01/11 11:30:04;;;;;;;5.97;0.98;;;;;;;-9.29;54.29;100890.63;7344741;19;20043;-70
2023/01/11 11:32:34;;;;;;;3.25;2.15;;;;;;;-9.15;54.47;100894.50;7345661;19;20409;-69
2023/01/11 11:34:59;;;;;;;4.03;2.08;;;;;;;-9.30;54.62;100909.53;7345861;19;20450;-70
2023/01/11 11:37:33;;;;;;;6.15;3.38;;;;;;;-9.72;55.67;100906.59;7348876;19;20484;-68
2023/01/11 11:39:57;;;;;;;5.50;1.80;;;;;;;-9.53;55.31;100880.50;7347434;19;20109;-68
2023/01/11 11:42:23;;;;;;;4.28;2.47;;;;;;;-9.64;55.60;100887.03;7348624;19;20011;-68
2023/01/11 11:45:06;;;;;;;7.22;3.88;;;;;;;-9.68;55.94;100877.44;7346401;19;20014;-69
2023/01/11 11:47:30;;;;;;;8.05;3.88;;;;;;;-9.16;55.45;100885.00;7351152;19;20338;-68
2023/01/11 11:50:18;;;;;;;4.03;2.67;;;;;;;-9.17;54.55;100881.53;7349742;19;20082;-69
2023/01/11 11:52:48;;;;;;;10.13;3.58;;;;;;;-9.33;54.72;100881.91;7350801;19;20017;-68
2023/01/11 11:55:13;;;;;;;6.47;2.03;;;;;;;-8.96;53.95;100885.50;7350110;19;20461;-69
2023/01/11 11:57:41;;;;;;;7.70;3.17;;;;;;;-9.51;55.21;100875.38;7351230;19;20010;-68
2023/01/11 12:00:21;;;;;;;6.13;3.40;;;;;;;-9.37;55.71;100877.53;7350317;19;20101;-74
2023/01/11 12:02:50;;;;;;;6.93;3.72;;;;;;;-9.59;55.80;100872.56;7350307;19;20017;-71
2023/01/11 12:05:15;;;;;;;7.22;4.13;;;;;;;-9.74;56.61;100887.59;7348820;19;20120;-71
2023/01/11 12:07:46;;;;;;;6.43;3.70;;;;;;;-9.60;56.70;100881.16;7350449;19;20011;-71